sensor_id;sensor_type;location;lat;lon;timestamp;temperature;humidity
30308;DHT22;17114;52.314;8.910;2022-10-26T00:01:13;7.90;99.90
30308;DHT22;17114;52.314;8.910;2022-10-26T00:03:42;7.90;99.90
30308;DHT22;17114;52.314;8.910;2022-10-26T00:06:17;7.80;99.90
30308;DHT22;17114;52.314;8.910;2022-10-26T00:08:45;7.80;99.90
30308;DHT22;17114;52.314;8.910;2022-10-26T00:11:13;7.80;99.90
30308;DHT22;17114;52.314;8.910;2022-10-26T00:13:40;7.60;99.90
30308;DHT22;17114;52.314;8.910;2022-10-26T00:16:22;7.80;99.90
30308;DHT22;17114;52.314;8.910;2022-10-26T00:18:49;7.70;99.90
30308;DHT22;17114;52.314;8.910;2022-10-26T00:21:16;7.70;99.90
30308;DHT22;17114;52.314;8.910;2022-10-26T00:23:43;7.60;99.90
30308;DHT22;17114;52.314;8.910;2022-10-26T00:26:11;7.60;99.90
30308;DHT22;17114;52.314;8.910;2022-10-26T00:28:38;7.60;99.90
30308;DHT22;17114;52.314;8.910;2022-10-26T00:31:07;7.70;99.90
30308;DHT22;17114;52.314;8.910;2022-10-26T00:33:35;7.70;99.90
30308;DHT22;17114;52.314;8.910;2022-10-26T00:36:02;7.70;99.90
30308;DHT22;17114;52.314;8.910;2022-10-26T00:38:29;7.70;99.90
30308;DHT22;17114;52.314;8.910;2022-10-26T00:40:56;7.80;99.90
30308;DHT22;17114;52.314;8.910;2022-10-26T00:45:56;7.60;99.90
30308;DHT22;17114;52.314;8.910;2022-10-26T00:48:29;7.50;99.90
30308;DHT22;17114;52.314;8.910;2022-10-26T00:51:00;7.50;99.90
30308;DHT22;17114;52.314;8.910;2022-10-26T00:53:28;7.60;99.90
30308;DHT22;17114;52.314;8.910;2022-10-26T00:55:56;7.60;99.90
30308;DHT22;17114;52.314;8.910;2022-10-26T00:58:24;7.60;99.90
30308;DHT22;17114;52.314;8.910;2022-10-26T01:00:51;7.60;99.90
30308;DHT22;17114;52.314;8.910;2022-10-26T01:03:19;7.50;99.90
30308;DHT22;17114;52.314;8.910;2022-10-26T01:05:48;7.60;99.90
30308;DHT22;17114;52.314;8.910;2022-10-26T01:08:16;7.50;99.90
30308;DHT22;17114;52.314;8.910;2022-10-26T01:10:44;7.50;99.90
30308;DHT22;17114;52.314;8.910;2022-10-26T01:13:13;7.40;99.90
30308;DHT22;17114;52.314;8.910;2022-10-26T01:15:49;7.50;99.90
30308;DHT22;17114;52.314;8.910;2022-10-26T01:18:46;7.50;99.90
30308;DHT22;17114;52.314;8.910;2022-10-26T01:29:43;7.50;99.90
30308;DHT22;17114;52.314;8.910;2022-10-26T01:32:31;7.50;99.90
30308;DHT22;17114;52.314;8.910;2022-10-26T01:35:13;7.50;99.90
30308;DHT22;17114;52.314;8.910;2022-10-26T01:37:53;7.50;99.90
30308;DHT22;17114;52.314;8.910;2022-10-26T01:40:30;7.60;99.90
30308;DHT22;17114;52.314;8.910;2022-10-26T01:43:01;7.60;99.90
30308;DHT22;17114;52.314;8.910;2022-10-26T01:45:31;7.70;99.90
30308;DHT22;17114;52.314;8.910;2022-10-26T01:48:01;7.80;99.90
30308;DHT22;17114;52.314;8.910;2022-10-26T01:50:30;7.70;99.90
30308;DHT22;17114;52.314;8.910;2022-10-26T01:52:57;7.70;99.90
30308;DHT22;17114;52.314;8.910;2022-10-26T01:55:49;7.60;99.90
30308;DHT22;17114;52.314;8.910;2022-10-26T02:11:44;7.70;99.90
30308;DHT22;17114;52.314;8.910;2022-10-26T02:20:06;8.20;99.90
30308;DHT22;17114;52.314;8.910;2022-10-26T02:22:38;8.30;99.90
30308;DHT22;17114;52.314;8.910;2022-10-26T02:25:11;8.50;99.90
30308;DHT22;17114;52.314;8.910;2022-10-26T02:27:45;8.60;99.90
30308;DHT22;17114;52.314;8.910;2022-10-26T02:30:14;8.70;99.90
30308;DHT22;17114;52.314;8.910;2022-10-26T02:32:45;8.90;99.90
30308;DHT22;17114;52.314;8.910;2022-10-26T02:35:14;8.90;99.90
30308;DHT22;17114;52.314;8.910;2022-10-26T02:37:43;8.90;99.90
30308;DHT22;17114;52.314;8.910;2022-10-26T02:40:16;9.00;99.90
30308;DHT22;17114;52.314;8.910;2022-10-26T02:42:45;9.00;99.90
30308;DHT22;17114;52.314;8.910;2022-10-26T02:45:17;9.00;99.90
30308;DHT22;17114;52.314;8.910;2022-10-26T02:47:44;9.00;99.90
30308;DHT22;17114;52.314;8.910;2022-10-26T02:50:12;9.10;99.90
30308;DHT22;17114;52.314;8.910;2022-10-26T02:52:48;9.10;99.90
30308;DHT22;17114;52.314;8.910;2022-10-26T02:55:18;9.20;99.90
30308;DHT22;17114;52.314;8.910;2022-10-26T02:57:50;9.30;99.90
30308;DHT22;17114;52.314;8.910;2022-10-26T03:00:17;9.20;99.90
30308;DHT22;17114;52.314;8.910;2022-10-26T03:02:51;9.30;99.90
30308;DHT22;17114;52.314;8.910;2022-10-26T03:05:22;9.20;99.90
30308;DHT22;17114;52.314;8.910;2022-10-26T03:07:49;9.20;99.90
30308;DHT22;17114;52.314;8.910;2022-10-26T03:10:16;9.10;99.90
30308;DHT22;17114;52.314;8.910;2022-10-26T03:12:43;9.00;99.90
30308;DHT22;17114;52.314;8.910;2022-10-26T03:15:10;9.00;99.90
30308;DHT22;17114;52.314;8.910;2022-10-26T03:17:37;9.00;99.90
30308;DHT22;17114;52.314;8.910;2022-10-26T03:20:04;8.90;99.90
30308;DHT22;17114;52.314;8.910;2022-10-26T03:22:31;8.90;99.90
30308;DHT22;17114;52.314;8.910;2022-10-26T03:24:58;8.80;99.90
30308;DHT22;17114;52.314;8.910;2022-10-26T03:27:24;8.60;99.90
30308;DHT22;17114;52.314;8.910;2022-10-26T03:29:52;8.80;99.90
30308;DHT22;17114;52.314;8.910;2022-10-26T03:32:19;8.90;99.90
30308;DHT22;17114;52.314;8.910;2022-10-26T03:34:46;8.90;99.90
30308;DHT22;17114;52.314;8.910;2022-10-26T03:37:13;9.10;99.90
30308;DHT22;17114;52.314;8.910;2022-10-26T03:39:40;8.90;99.90
30308;DHT22;17114;52.314;8.910;2022-10-26T03:42:06;8.90;99.90
30308;DHT22;17114;52.314;8.910;2022-10-26T03:44:33;9.00;99.90
30308;DHT22;17114;52.314;8.910;2022-10-26T03:47:00;9.10;99.90
30308;DHT22;17114;52.314;8.910;2022-10-26T03:49:27;9.10;99.90
30308;DHT22;17114;52.314;8.910;2022-10-26T03:51:54;9.20;99.90
30308;DHT22;17114;52.314;8.910;2022-10-26T03:54:20;9.20;99.90
30308;DHT22;17114;52.314;8.910;2022-10-26T03:56:47;9.30;99.90
30308;DHT22;17114;52.314;8.910;2022-10-26T03:59:20;9.30;99.90
30308;DHT22;17114;52.314;8.910;2022-10-26T04:01:47;9.30;99.90
30308;DHT22;17114;52.314;8.910;2022-10-26T04:04:19;9.50;99.90
30308;DHT22;17114;52.314;8.910;2022-10-26T04:06:46;9.30;99.90
30308;DHT22;17114;52.314;8.910;2022-10-26T04:09:13;9.20;99.90
30308;DHT22;17114;52.314;8.910;2022-10-26T04:11:40;9.30;99.90
30308;DHT22;17114;52.314;8.910;2022-10-26T04:14:06;9.30;99.90
30308;DHT22;17114;52.314;8.910;2022-10-26T04:16:33;9.20;99.90
30308;DHT22;17114;52.314;8.910;2022-10-26T04:19:00;9.10;99.90
30308;DHT22;17114;52.314;8.910;2022-10-26T04:21:27;9.10;99.90
30308;DHT22;17114;52.314;8.910;2022-10-26T04:23:56;9.20;99.90
30308;DHT22;17114;52.314;8.910;2022-10-26T04:26:22;9.20;99.90
30308;DHT22;17114;52.314;8.910;2022-10-26T04:28:49;9.20;99.90
30308;DHT22;17114;52.314;8.910;2022-10-26T04:31:16;9.20;99.90
30308;DHT22;17114;52.314;8.910;2022-10-26T04:33:43;9.20;99.90
30308;DHT22;17114;52.314;8.910;2022-10-26T04:36:09;9.20;99.90
30308;DHT22;17114;52.314;8.910;2022-10-26T04:38:36;9.10;99.90
30308;DHT22;17114;52.314;8.910;2022-10-26T04:41:03;9.00;99.90
30308;DHT22;17114;52.314;8.910;2022-10-26T04:43:30;9.00;99.90
30308;DHT22;17114;52.314;8.910;2022-10-26T04:45:57;8.90;99.90
30308;DHT22;17114;52.314;8.910;2022-10-26T04:48:24;8.90;99.90
30308;DHT22;17114;52.314;8.910;2022-10-26T04:50:51;8.80;99.90
30308;DHT22;17114;52.314;8.910;2022-10-26T04:53:18;8.80;99.90
30308;DHT22;17114;52.314;8.910;2022-10-26T04:55:45;8.70;99.90
30308;DHT22;17114;52.314;8.910;2022-10-26T04:58:12;8.70;99.90
30308;DHT22;17114;52.314;8.910;2022-10-26T05:00:39;8.70;99.90
30308;DHT22;17114;52.314;8.910;2022-10-26T05:03:06;8.70;99.90
30308;DHT22;17114;52.314;8.910;2022-10-26T05:06:00;8.80;99.90
30308;DHT22;17114;52.314;8.910;2022-10-26T05:08:27;8.90;99.90
30308;DHT22;17114;52.314;8.910;2022-10-26T05:10:55;8.90;99.90
30308;DHT22;17114;52.314;8.910;2022-10-26T05:13:22;9.00;99.90
30308;DHT22;17114;52.314;8.910;2022-10-26T05:15:52;9.10;99.90
30308;DHT22;17114;52.314;8.910;2022-10-26T05:18:19;9.10;99.90
30308;DHT22;17114;52.314;8.910;2022-10-26T05:20:46;9.20;99.90
30308;DHT22;17114;52.314;8.910;2022-10-26T05:23:15;9.40;99.90
30308;DHT22;17114;52.314;8.910;2022-10-26T05:25:44;9.50;99.90
30308;DHT22;17114;52.314;8.910;2022-10-26T05:28:12;9.60;99.90
30308;DHT22;17114;52.314;8.910;2022-10-26T05:30:41;9.60;99.90
30308;DHT22;17114;52.314;8.910;2022-10-26T05:33:10;9.70;99.90
30308;DHT22;17114;52.314;8.910;2022-10-26T05:35:37;9.70;99.90
30308;DHT22;17114;52.314;8.910;2022-10-26T05:38:09;9.80;99.90
30308;DHT22;17114;52.314;8.910;2022-10-26T05:40:54;9.80;99.90
30308;DHT22;17114;52.314;8.910;2022-10-26T05:43:22;9.80;99.90
30308;DHT22;17114;52.314;8.910;2022-10-26T05:45:53;9.80;99.90
30308;DHT22;17114;52.314;8.910;2022-10-26T05:48:20;9.90;99.90
30308;DHT22;17114;52.314;8.910;2022-10-26T05:50:47;9.90;99.90
30308;DHT22;17114;52.314;8.910;2022-10-26T05:53:30;9.90;99.90
30308;DHT22;17114;52.314;8.910;2022-10-26T05:56:16;10.00;99.90
30308;DHT22;17114;52.314;8.910;2022-10-26T05:58:45;10.10;99.90
30308;DHT22;17114;52.314;8.910;2022-10-26T06:04:44;10.10;99.90
30308;DHT22;17114;52.314;8.910;2022-10-26T06:07:18;10.20;99.90
30308;DHT22;17114;52.314;8.910;2022-10-26T06:09:50;10.20;99.90
30308;DHT22;17114;52.314;8.910;2022-10-26T06:12:17;10.30;99.90
30308;DHT22;17114;52.314;8.910;2022-10-26T06:14:45;10.30;99.90
30308;DHT22;17114;52.314;8.910;2022-10-26T06:20:02;10.30;99.90
30308;DHT22;17114;52.314;8.910;2022-10-26T06:25:01;10.30;99.90
30308;DHT22;17114;52.314;8.910;2022-10-26T06:27:43;10.40;99.90
30308;DHT22;17114;52.314;8.910;2022-10-26T06:30:12;10.40;99.90
30308;DHT22;17114;52.314;8.910;2022-10-26T06:32:42;10.40;99.90
30308;DHT22;17114;52.314;8.910;2022-10-26T06:35:31;10.40;99.90
30308;DHT22;17114;52.314;8.910;2022-10-26T06:38:03;10.50;99.90
30308;DHT22;17114;52.314;8.910;2022-10-26T06:40:34;10.40;99.90
30308;DHT22;17114;52.314;8.910;2022-10-26T06:43:02;10.50;99.90
30308;DHT22;17114;52.314;8.910;2022-10-26T06:45:31;10.40;99.90
30308;DHT22;17114;52.314;8.910;2022-10-26T06:48:14;10.40;99.90
30308;DHT22;17114;52.314;8.910;2022-10-26T06:50:51;10.30;99.90
30308;DHT22;17114;52.314;8.910;2022-10-26T06:55:59;10.40;99.90
30308;DHT22;17114;52.314;8.910;2022-10-26T06:58:33;10.40;99.90
30308;DHT22;17114;52.314;8.910;2022-10-26T07:01:01;10.40;99.90
30308;DHT22;17114;52.314;8.910;2022-10-26T07:03:28;10.50;99.90
30308;DHT22;17114;52.314;8.910;2022-10-26T07:05:56;10.50;99.90
30308;DHT22;17114;52.314;8.910;2022-10-26T07:08:23;10.60;99.90
30308;DHT22;17114;52.314;8.910;2022-10-26T07:11:01;10.60;99.90
30308;DHT22;17114;52.314;8.910;2022-10-26T07:13:46;10.70;99.90
30308;DHT22;17114;52.314;8.910;2022-10-26T07:16:20;10.70;99.90
30308;DHT22;17114;52.314;8.910;2022-10-26T07:19:06;10.80;99.90
30308;DHT22;17114;52.314;8.910;2022-10-26T07:21:33;10.80;99.90
30308;DHT22;17114;52.314;8.910;2022-10-26T07:24:00;10.90;99.90
30308;DHT22;17114;52.314;8.910;2022-10-26T07:26:36;10.90;99.90
30308;DHT22;17114;52.314;8.910;2022-10-26T07:29:09;11.00;99.90
30308;DHT22;17114;52.314;8.910;2022-10-26T07:31:52;11.10;99.90
30308;DHT22;17114;52.314;8.910;2022-10-26T07:34:22;11.10;99.90
30308;DHT22;17114;52.314;8.910;2022-10-26T07:36:57;11.20;99.90
30308;DHT22;17114;52.314;8.910;2022-10-26T07:39:24;11.30;99.90
30308;DHT22;17114;52.314;8.910;2022-10-26T07:41:51;11.30;99.90
30308;DHT22;17114;52.314;8.910;2022-10-26T07:44:18;11.40;99.90
30308;DHT22;17114;52.314;8.910;2022-10-26T07:46:45;11.40;99.90
30308;DHT22;17114;52.314;8.910;2022-10-26T07:49:17;11.50;99.90
30308;DHT22;17114;52.314;8.910;2022-10-26T07:51:56;11.50;99.90
30308;DHT22;17114;52.314;8.910;2022-10-26T07:54:23;11.50;99.90
30308;DHT22;17114;52.314;8.910;2022-10-26T07:57:00;11.70;99.90
30308;DHT22;17114;52.314;8.910;2022-10-26T07:59:28;11.70;99.90
30308;DHT22;17114;52.314;8.910;2022-10-26T08:02:18;11.90;99.90
30308;DHT22;17114;52.314;8.910;2022-10-26T08:04:48;12.00;99.90
30308;DHT22;17114;52.314;8.910;2022-10-26T08:07:21;12.10;99.90
30308;DHT22;17114;52.314;8.910;2022-10-26T08:10:00;12.10;99.90
30308;DHT22;17114;52.314;8.910;2022-10-26T08:12:27;12.30;99.90
30308;DHT22;17114;52.314;8.910;2022-10-26T08:15:00;12.40;99.90
30308;DHT22;17114;52.314;8.910;2022-10-26T08:17:44;12.50;99.90
30308;DHT22;17114;52.314;8.910;2022-10-26T08:20:37;12.50;99.90
30308;DHT22;17114;52.314;8.910;2022-10-26T08:23:12;12.70;99.90
30308;DHT22;17114;52.314;8.910;2022-10-26T08:25:41;12.80;99.90
30308;DHT22;17114;52.314;8.910;2022-10-26T08:28:08;12.90;99.90
30308;DHT22;17114;52.314;8.910;2022-10-26T08:30:38;12.90;99.90
30308;DHT22;17114;52.314;8.910;2022-10-26T08:33:34;13.00;99.90
30308;DHT22;17114;52.314;8.910;2022-10-26T08:36:23;13.10;99.90
30308;DHT22;17114;52.314;8.910;2022-10-26T08:39:06;13.30;99.90
30308;DHT22;17114;52.314;8.910;2022-10-26T08:41:46;13.50;99.90
30308;DHT22;17114;52.314;8.910;2022-10-26T08:47:28;13.80;99.90
30308;DHT22;17114;52.314;8.910;2022-10-26T08:56:34;14.40;99.90
30308;DHT22;17114;52.314;8.910;2022-10-26T09:01:55;15.10;99.90
30308;DHT22;17114;52.314;8.910;2022-10-26T09:04:27;15.10;99.90
30308;DHT22;17114;52.314;8.910;2022-10-26T09:10:11;15.10;99.90
30308;DHT22;17114;52.314;8.910;2022-10-26T09:25:59;15.60;99.90
30308;DHT22;17114;52.314;8.910;2022-10-26T09:28:32;15.80;99.90
30308;DHT22;17114;52.314;8.910;2022-10-26T09:31:02;16.00;99.90
30308;DHT22;17114;52.314;8.910;2022-10-26T09:33:34;16.50;99.90
30308;DHT22;17114;52.314;8.910;2022-10-26T09:36:03;16.70;99.90
30308;DHT22;17114;52.314;8.910;2022-10-26T09:38:44;16.90;99.90
30308;DHT22;17114;52.314;8.910;2022-10-26T09:46:31;17.10;99.90
30308;DHT22;17114;52.314;8.910;2022-10-26T09:49:03;17.30;99.90
30308;DHT22;17114;52.314;8.910;2022-10-26T09:51:35;17.50;99.90
30308;DHT22;17114;52.314;8.910;2022-10-26T09:54:17;17.60;99.90
30308;DHT22;17114;52.314;8.910;2022-10-26T09:56:52;17.60;99.90
30308;DHT22;17114;52.314;8.910;2022-10-26T09:59:22;17.60;99.90
30308;DHT22;17114;52.314;8.910;2022-10-26T10:01:50;17.50;99.90
30308;DHT22;17114;52.314;8.910;2022-10-26T10:04:20;17.50;99.90
30308;DHT22;17114;52.314;8.910;2022-10-26T10:09:27;17.60;99.90
30308;DHT22;17114;52.314;8.910;2022-10-26T10:11:56;17.60;99.90
30308;DHT22;17114;52.314;8.910;2022-10-26T10:14:32;17.70;99.90
30308;DHT22;17114;52.314;8.910;2022-10-26T10:17:07;17.70;99.90
30308;DHT22;17114;52.314;8.910;2022-10-26T10:19:42;17.80;99.90
30308;DHT22;17114;52.314;8.910;2022-10-26T10:24:55;17.70;99.90
30308;DHT22;17114;52.314;8.910;2022-10-26T10:27:23;17.80;99.90
30308;DHT22;17114;52.314;8.910;2022-10-26T10:29:55;17.90;99.90
30308;DHT22;17114;52.314;8.910;2022-10-26T10:32:30;17.80;99.90
30308;DHT22;17114;52.314;8.910;2022-10-26T10:35:22;17.90;99.90
30308;DHT22;17114;52.314;8.910;2022-10-26T10:37:50;18.30;99.90
30308;DHT22;17114;52.314;8.910;2022-10-26T10:40:26;19.00;99.90
30308;DHT22;17114;52.314;8.910;2022-10-26T10:43:02;19.30;99.90
30308;DHT22;17114;52.314;8.910;2022-10-26T10:45:30;19.50;99.90
30308;DHT22;17114;52.314;8.910;2022-10-26T10:48:17;19.70;99.90
30308;DHT22;17114;52.314;8.910;2022-10-26T10:51:05;19.80;99.90
30308;DHT22;17114;52.314;8.910;2022-10-26T10:56:36;20.00;99.90
30308;DHT22;17114;52.314;8.910;2022-10-26T11:02:47;20.30;99.90
30308;DHT22;17114;52.314;8.910;2022-10-26T11:10:25;19.70;99.90
30308;DHT22;17114;52.314;8.910;2022-10-26T11:12:57;19.80;99.90
30308;DHT22;17114;52.314;8.910;2022-10-26T11:15:28;19.70;99.90
30308;DHT22;17114;52.314;8.910;2022-10-26T11:18:11;19.40;99.90
30308;DHT22;17114;52.314;8.910;2022-10-26T11:20:44;19.20;99.90
30308;DHT22;17114;52.314;8.910;2022-10-26T11:26:17;19.50;99.90
30308;DHT22;17114;52.314;8.910;2022-10-26T11:28:54;19.60;99.90
30308;DHT22;17114;52.314;8.910;2022-10-26T11:31:41;19.80;99.90
30308;DHT22;17114;52.314;8.910;2022-10-26T11:37:23;20.00;99.90
30308;DHT22;17114;52.314;8.910;2022-10-26T11:40:13;19.90;99.90
30308;DHT22;17114;52.314;8.910;2022-10-26T11:42:46;19.80;99.90
30308;DHT22;17114;52.314;8.910;2022-10-26T11:45:29;19.80;99.90
30308;DHT22;17114;52.314;8.910;2022-10-26T11:50:50;19.90;99.90
30308;DHT22;17114;52.314;8.910;2022-10-26T11:53:46;20.00;99.90
30308;DHT22;17114;52.314;8.910;2022-10-26T11:56:28;20.10;99.90
30308;DHT22;17114;52.314;8.910;2022-10-26T11:58:56;20.10;99.90
30308;DHT22;17114;52.314;8.910;2022-10-26T12:01:27;20.10;99.90
30308;DHT22;17114;52.314;8.910;2022-10-26T12:03:56;20.00;99.90
30308;DHT22;17114;52.314;8.910;2022-10-26T12:06:28;20.00;99.90
30308;DHT22;17114;52.314;8.910;2022-10-26T12:09:12;20.10;99.90
30308;DHT22;17114;52.314;8.910;2022-10-26T12:12:03;20.10;99.90
30308;DHT22;17114;52.314;8.910;2022-10-26T12:22:53;20.20;99.90
30308;DHT22;17114;52.314;8.910;2022-10-26T12:25:21;20.20;99.90
30308;DHT22;17114;52.314;8.910;2022-10-26T12:27:53;20.10;99.90
30308;DHT22;17114;52.314;8.910;2022-10-26T12:30:23;20.10;99.90
30308;DHT22;17114;52.314;8.910;2022-10-26T12:32:57;20.20;99.90
30308;DHT22;17114;52.314;8.910;2022-10-26T12:41:17;20.10;99.90
30308;DHT22;17114;52.314;8.910;2022-10-26T12:43:44;20.10;99.90
30308;DHT22;17114;52.314;8.910;2022-10-26T12:56:35;20.20;99.90
30308;DHT22;17114;52.314;8.910;2022-10-26T12:59:44;20.20;99.90
30308;DHT22;17114;52.314;8.910;2022-10-26T13:02:41;20.20;99.90
30308;DHT22;17114;52.314;8.910;2022-10-26T13:07:45;19.90;99.90
30308;DHT22;17114;52.314;8.910;2022-10-26T13:15:37;19.70;99.90
30308;DHT22;17114;52.314;8.910;2022-10-26T13:18:08;19.70;99.90
30308;DHT22;17114;52.314;8.910;2022-10-26T13:20:49;19.60;99.90
30308;DHT22;17114;52.314;8.910;2022-10-26T13:23:25;19.50;99.90
30308;DHT22;17114;52.314;8.910;2022-10-26T13:26:14;19.40;99.90
30308;DHT22;17114;52.314;8.910;2022-10-26T13:28:48;19.30;99.90
30308;DHT22;17114;52.314;8.910;2022-10-26T13:31:51;19.30;99.90
30308;DHT22;17114;52.314;8.910;2022-10-26T13:34:16;19.30;99.90
30308;DHT22;17114;52.314;8.910;2022-10-26T13:37:09;19.30;99.90
30308;DHT22;17114;52.314;8.910;2022-10-26T13:39:41;19.30;99.90
30308;DHT22;17114;52.314;8.910;2022-10-26T13:42:18;19.30;99.90
30308;DHT22;17114;52.314;8.910;2022-10-26T13:45:04;19.30;99.90
30308;DHT22;17114;52.314;8.910;2022-10-26T13:47:55;19.40;99.90
30308;DHT22;17114;52.314;8.910;2022-10-26T13:50:27;19.40;99.90
30308;DHT22;17114;52.314;8.910;2022-10-26T13:53:01;19.30;99.90
30308;DHT22;17114;52.314;8.910;2022-10-26T13:55:35;19.30;99.90
30308;DHT22;17114;52.314;8.910;2022-10-26T14:01:00;19.20;99.90
30308;DHT22;17114;52.314;8.910;2022-10-26T14:03:28;19.10;99.90
30308;DHT22;17114;52.314;8.910;2022-10-26T14:05:55;19.10;99.90
30308;DHT22;17114;52.314;8.910;2022-10-26T14:08:22;19.00;99.90
30308;DHT22;17114;52.314;8.910;2022-10-26T14:10:58;19.00;99.90
30308;DHT22;17114;52.314;8.910;2022-10-26T14:13:52;18.90;99.90
30308;DHT22;17114;52.314;8.910;2022-10-26T14:16:19;18.90;99.90
30308;DHT22;17114;52.314;8.910;2022-10-26T14:18:48;18.90;99.90
30308;DHT22;17114;52.314;8.910;2022-10-26T14:21:18;18.90;99.90
30308;DHT22;17114;52.314;8.910;2022-10-26T14:23:59;18.80;99.90
30308;DHT22;17114;52.314;8.910;2022-10-26T14:26:40;18.80;99.90
30308;DHT22;17114;52.314;8.910;2022-10-26T14:29:23;18.80;99.90
30308;DHT22;17114;52.314;8.910;2022-10-26T14:31:55;18.80;99.90
30308;DHT22;17114;52.314;8.910;2022-10-26T14:34:26;18.80;99.90
30308;DHT22;17114;52.314;8.910;2022-10-26T14:36:57;18.80;99.90
30308;DHT22;17114;52.314;8.910;2022-10-26T14:39:37;18.80;99.90
30308;DHT22;17114;52.314;8.910;2022-10-26T14:42:29;18.70;99.90
30308;DHT22;17114;52.314;8.910;2022-10-26T14:45:03;18.70;99.90
30308;DHT22;17114;52.314;8.910;2022-10-26T14:47:32;18.70;99.90
30308;DHT22;17114;52.314;8.910;2022-10-26T14:50:01;18.60;99.90
30308;DHT22;17114;52.314;8.910;2022-10-26T14:52:34;18.60;99.90
30308;DHT22;17114;52.314;8.910;2022-10-26T14:57:36;18.60;99.90
30308;DHT22;17114;52.314;8.910;2022-10-26T15:02:49;18.50;99.90
30308;DHT22;17114;52.314;8.910;2022-10-26T15:07:51;18.40;99.90
30308;DHT22;17114;52.314;8.910;2022-10-26T15:15:52;18.30;99.90
30308;DHT22;17114;52.314;8.910;2022-10-26T15:20:51;18.20;99.90
30308;DHT22;17114;52.314;8.910;2022-10-26T15:23:20;18.10;99.90
30308;DHT22;17114;52.314;8.910;2022-10-26T15:25:53;18.10;99.90
30308;DHT22;17114;52.314;8.910;2022-10-26T15:28:37;18.10;99.90
30308;DHT22;17114;52.314;8.910;2022-10-26T15:36:24;17.90;99.90
30308;DHT22;17114;52.314;8.910;2022-10-26T15:38:56;17.90;99.90
30308;DHT22;17114;52.314;8.910;2022-10-26T15:41:34;17.80;99.90
30308;DHT22;17114;52.314;8.910;2022-10-26T15:44:13;17.70;99.90
30308;DHT22;17114;52.314;8.910;2022-10-26T15:46:42;17.70;99.90
30308;DHT22;17114;52.314;8.910;2022-10-26T15:49:15;17.60;99.90
30308;DHT22;17114;52.314;8.910;2022-10-26T15:51:47;17.40;99.90
30308;DHT22;17114;52.314;8.910;2022-10-26T15:54:24;17.40;99.90
30308;DHT22;17114;52.314;8.910;2022-10-26T15:57:08;17.30;99.90
30308;DHT22;17114;52.314;8.910;2022-10-26T15:59:46;17.10;99.90
30308;DHT22;17114;52.314;8.910;2022-10-26T16:02:15;17.00;99.90
30308;DHT22;17114;52.314;8.910;2022-10-26T16:04:44;16.90;99.90
30308;DHT22;17114;52.314;8.910;2022-10-26T16:07:12;16.80;99.90
30308;DHT22;17114;52.314;8.910;2022-10-26T16:09:44;16.70;99.90
30308;DHT22;17114;52.314;8.910;2022-10-26T16:12:16;16.60;99.90
30308;DHT22;17114;52.314;8.910;2022-10-26T16:14:44;16.60;99.90
30308;DHT22;17114;52.314;8.910;2022-10-26T16:17:30;16.60;99.90
30308;DHT22;17114;52.314;8.910;2022-10-26T16:19:59;16.60;99.90
30308;DHT22;17114;52.314;8.910;2022-10-26T16:22:34;16.70;99.90
30308;DHT22;17114;52.314;8.910;2022-10-26T16:25:04;16.70;99.90
30308;DHT22;17114;52.314;8.910;2022-10-26T16:27:31;16.80;99.90
30308;DHT22;17114;52.314;8.910;2022-10-26T16:29:58;16.80;99.90
30308;DHT22;17114;52.314;8.910;2022-10-26T16:32:25;16.70;99.90
30308;DHT22;17114;52.314;8.910;2022-10-26T16:34:52;16.70;99.90
30308;DHT22;17114;52.314;8.910;2022-10-26T16:37:19;16.60;99.90
30308;DHT22;17114;52.314;8.910;2022-10-26T16:39:46;16.60;99.90
30308;DHT22;17114;52.314;8.910;2022-10-26T16:42:13;16.60;99.90
30308;DHT22;17114;52.314;8.910;2022-10-26T16:44:42;16.60;99.90
30308;DHT22;17114;52.314;8.910;2022-10-26T16:47:12;16.50;99.90
30308;DHT22;17114;52.314;8.910;2022-10-26T16:49:40;16.50;99.90
30308;DHT22;17114;52.314;8.910;2022-10-26T16:52:10;16.50;99.90
30308;DHT22;17114;52.314;8.910;2022-10-26T16:54:37;16.40;99.90
30308;DHT22;17114;52.314;8.910;2022-10-26T16:57:05;16.40;99.90
30308;DHT22;17114;52.314;8.910;2022-10-26T16:59:32;16.30;99.90
30308;DHT22;17114;52.314;8.910;2022-10-26T17:01:59;16.30;99.90
30308;DHT22;17114;52.314;8.910;2022-10-26T17:04:26;16.30;99.90
30308;DHT22;17114;52.314;8.910;2022-10-26T17:06:53;16.30;99.90
30308;DHT22;17114;52.314;8.910;2022-10-26T17:09:20;16.30;99.90
30308;DHT22;17114;52.314;8.910;2022-10-26T17:11:47;16.30;99.90
30308;DHT22;17114;52.314;8.910;2022-10-26T17:14:14;16.20;99.90
30308;DHT22;17114;52.314;8.910;2022-10-26T17:16:41;16.20;99.90
30308;DHT22;17114;52.314;8.910;2022-10-26T17:19:09;16.10;99.90
30308;DHT22;17114;52.314;8.910;2022-10-26T17:21:37;16.00;99.90
30308;DHT22;17114;52.314;8.910;2022-10-26T17:24:04;16.00;99.90
30308;DHT22;17114;52.314;8.910;2022-10-26T17:26:32;16.00;99.90
30308;DHT22;17114;52.314;8.910;2022-10-26T17:29:00;16.00;99.90
30308;DHT22;17114;52.314;8.910;2022-10-26T17:31:27;16.00;99.90
30308;DHT22;17114;52.314;8.910;2022-10-26T17:33:55;15.90;99.90
30308;DHT22;17114;52.314;8.910;2022-10-26T17:36:24;15.90;99.90
30308;DHT22;17114;52.314;8.910;2022-10-26T17:38:53;15.90;99.90
30308;DHT22;17114;52.314;8.910;2022-10-26T17:41:21;16.00;99.90
30308;DHT22;17114;52.314;8.910;2022-10-26T17:43:49;15.90;99.90
30308;DHT22;17114;52.314;8.910;2022-10-26T17:46:18;15.90;99.90
30308;DHT22;17114;52.314;8.910;2022-10-26T17:48:46;15.90;99.90
30308;DHT22;17114;52.314;8.910;2022-10-26T17:51:17;15.90;99.90
30308;DHT22;17114;52.314;8.910;2022-10-26T17:53:46;15.90;99.90
30308;DHT22;17114;52.314;8.910;2022-10-26T17:58:42;16.00;99.90
30308;DHT22;17114;52.314;8.910;2022-10-26T18:01:11;16.00;99.90
30308;DHT22;17114;52.314;8.910;2022-10-26T18:03:39;16.00;99.90
30308;DHT22;17114;52.314;8.910;2022-10-26T18:06:07;15.90;99.90
30308;DHT22;17114;52.314;8.910;2022-10-26T18:08:35;15.90;99.90
30308;DHT22;17114;52.314;8.910;2022-10-26T18:11:04;15.80;99.90
30308;DHT22;17114;52.314;8.910;2022-10-26T18:13:32;15.80;99.90
30308;DHT22;17114;52.314;8.910;2022-10-26T18:16:03;15.80;99.90
30308;DHT22;17114;52.314;8.910;2022-10-26T18:18:31;15.80;99.90
30308;DHT22;17114;52.314;8.910;2022-10-26T18:21:00;15.80;99.90
30308;DHT22;17114;52.314;8.910;2022-10-26T18:23:28;15.90;99.90
30308;DHT22;17114;52.314;8.910;2022-10-26T18:26:03;15.80;99.90
30308;DHT22;17114;52.314;8.910;2022-10-26T18:28:39;15.80;99.90
30308;DHT22;17114;52.314;8.910;2022-10-26T18:31:08;15.80;99.90
30308;DHT22;17114;52.314;8.910;2022-10-26T18:33:36;15.80;99.90
30308;DHT22;17114;52.314;8.910;2022-10-26T18:36:09;15.70;99.90
30308;DHT22;17114;52.314;8.910;2022-10-26T18:38:37;15.60;99.90
30308;DHT22;17114;52.314;8.910;2022-10-26T18:41:07;15.60;99.90
30308;DHT22;17114;52.314;8.910;2022-10-26T18:43:43;15.50;99.90
30308;DHT22;17114;52.314;8.910;2022-10-26T18:46:13;15.50;99.90